EWG17C LGAV-LGMK
Flight info
| Callsign | EWG17C |
|---|---|
| Flight time | 0h 21m |
| Altitude | 15000 |
| Route | KEA L995 VARIX |
| Aircraft | A320/M-SDE3FGHIRWY/LB1 |
Departure
| Time | 2026-05-04 16:08 |
|---|---|
| Airport | Athens Eleftherios Venizelos International Airport (LGAV) |
Arrival
| Time | 2026-05-04 16:29 |
|---|---|
| Airport | Mykonos Island National Airport (LGMK) |
| Time | Latitude | Longitude | Altitude | Speed | Heading |
|---|---|---|---|---|---|
| 2026-05-04 15:36 | 37.93605 | 23.94839 | 301 ft | 0 kts | 307° |
| 2026-05-04 15:57 | 37.93593 | 23.94862 | 302 ft | 4 kts | 301° |
| 2026-05-04 15:57 | 37.93578 | 23.94891 | 302 ft | 4 kts | 308° |
| 2026-05-04 15:57 | 37.93561 | 23.94915 | 302 ft | 4 kts | 295° |
| 2026-05-04 15:57 | 37.93554 | 23.94914 | 302 ft | 2 kts | 218° |
| 2026-05-04 15:58 | 37.93574 | 23.94933 | 301 ft | 4 kts | 215° |
| 2026-05-04 15:58 | 37.93583 | 23.94942 | 301 ft | 0 kts | 215° |
| 2026-05-04 16:01 | 37.93574 | 23.94933 | 301 ft | 2 kts | 216° |
| 2026-05-04 16:01 | 37.93563 | 23.94924 | 302 ft | 1 kts | 216° |
| 2026-05-04 16:01 | 37.93556 | 23.94917 | 302 ft | 1 kts | 217° |
| 2026-05-04 16:02 | 37.93548 | 23.94909 | 301 ft | 3 kts | 217° |
| 2026-05-04 16:02 | 37.93529 | 23.94891 | 301 ft | 3 kts | 217° |
| 2026-05-04 16:02 | 37.93381 | 23.94748 | 302 ft | 15 kts | 215° |
| 2026-05-04 16:03 | 37.93308 | 23.94682 | 301 ft | 10 kts | 217° |
| 2026-05-04 16:03 | 37.93258 | 23.94632 | 302 ft | 9 kts | 218° |
| 2026-05-04 16:03 | 37.93208 | 23.94599 | 301 ft | 8 kts | 191° |
| 2026-05-04 16:03 | 37.93158 | 23.94594 | 301 ft | 7 kts | 181° |
| 2026-05-04 16:04 | 37.93116 | 23.94595 | 301 ft | 6 kts | 170° |
| 2026-05-04 16:04 | 37.93030 | 23.94676 | 302 ft | 10 kts | 172° |
| 2026-05-04 16:04 | 37.92973 | 23.94639 | 302 ft | 9 kts | 217° |
| 2026-05-04 16:05 | 37.92911 | 23.94579 | 302 ft | 16 kts | 217° |
| 2026-05-04 16:05 | 37.92799 | 23.94470 | 302 ft | 25 kts | 217° |
| 2026-05-04 16:05 | 37.92562 | 23.94292 | 304 ft | 12 kts | 156° |
| 2026-05-04 16:06 | 37.92515 | 23.94358 | 307 ft | 9 kts | 128° |
| 2026-05-04 16:06 | 37.92546 | 23.94511 | 307 ft | 12 kts | 36° |
| 2026-05-04 16:07 | 37.92654 | 23.94614 | 305 ft | 20 kts | 37° |
| 2026-05-04 16:07 | 37.94469 | 23.96407 | 743 ft | 160 kts | 40° |
| 2026-05-04 16:08 | 37.95362 | 23.97271 | 1488 ft | 162 kts | 34° |
| 2026-05-04 16:08 | 37.98644 | 24.00330 | 2782 ft | 230 kts | 34° |
| 2026-05-04 16:09 | 38.01291 | 24.02862 | 4557 ft | 242 kts | 33° |
| 2026-05-04 16:09 | 38.03983 | 24.05459 | 6432 ft | 248 kts | 33° |
| 2026-05-04 16:10 | 38.06741 | 24.08182 | 8256 ft | 256 kts | 40° |
| 2026-05-04 16:11 | 38.08093 | 24.14912 | 10470 ft | 305 kts | 102° |
| 2026-05-04 16:11 | 38.07324 | 24.17540 | 10767 ft | 333 kts | 115° |
| 2026-05-04 16:12 | 38.00981 | 24.21994 | 12202 ft | 382 kts | 173° |
| 2026-05-04 16:12 | 37.92951 | 24.23327 | 14385 ft | 394 kts | 171° |
| 2026-05-04 16:13 | 37.87584 | 24.24808 | 15087 ft | 394 kts | 152° |
| 2026-05-04 16:13 | 37.83415 | 24.29480 | 15133 ft | 417 kts | 126° |
| 2026-05-04 16:14 | 37.79788 | 24.35267 | 15128 ft | 421 kts | 126° |
| 2026-05-04 16:14 | 37.76280 | 24.40834 | 15126 ft | 397 kts | 126° |
| 2026-05-04 16:15 | 37.71147 | 24.48961 | 14545 ft | 394 kts | 125° |
| 2026-05-04 16:16 | 37.67718 | 24.54380 | 13684 ft | 393 kts | 125° |
| 2026-05-04 16:16 | 37.62645 | 24.62369 | 11803 ft | 385 kts | 126° |
| 2026-05-04 16:17 | 37.59322 | 24.67578 | 10956 ft | 370 kts | 126° |
| 2026-05-04 16:18 | 37.54767 | 24.74713 | 10581 ft | 328 kts | 126° |
| 2026-05-04 16:18 | 37.53362 | 24.76914 | 10458 ft | 317 kts | 126° |
| 2026-05-04 16:19 | 37.49780 | 24.82524 | 10110 ft | 306 kts | 126° |
| 2026-05-04 16:19 | 37.47099 | 24.86726 | 9296 ft | 308 kts | 127° |
| 2026-05-04 16:20 | 37.43280 | 24.92678 | 8330 ft | 281 kts | 127° |
| 2026-05-04 16:20 | 37.40855 | 24.96463 | 7416 ft | 271 kts | 125° |
| 2026-05-04 16:21 | 37.38734 | 25.02926 | 6436 ft | 266 kts | 105° |
| 2026-05-04 16:22 | 37.37516 | 25.07310 | 6177 ft | 264 kts | 105° |
| 2026-05-04 16:22 | 37.35711 | 25.13816 | 5790 ft | 262 kts | 106° |
| 2026-05-04 16:23 | 37.33970 | 25.20063 | 5399 ft | 248 kts | 106° |
| 2026-05-04 16:24 | 37.31711 | 25.28136 | 4890 ft | 244 kts | 106° |
| 2026-05-04 16:25 | 37.30605 | 25.32080 | 4489 ft | 233 kts | 106° |
| 2026-05-04 16:26 | 37.31828 | 25.38658 | 3125 ft | 206 kts | 21° |
| 2026-05-04 16:26 | 37.35910 | 25.38180 | 1765 ft | 195 kts | 341° |
| 2026-05-04 16:27 | 37.38274 | 25.37136 | 1318 ft | 171 kts | 341° |
| 2026-05-04 16:28 | 37.41183 | 25.35864 | 721 ft | 133 kts | 341° |
| 2026-05-04 16:28 | 37.43555 | 25.34798 | 410 ft | 78 kts | 341° |
| 2026-05-04 16:29 | 37.44126 | 25.34551 | 408 ft | 17 kts | 340° |
| 2026-05-04 16:30 | 37.44158 | 25.34538 | 407 ft | 34 kts | 160° |
| 2026-05-04 16:31 | 37.43645 | 25.34692 | 409 ft | 22 kts | 213° |
| 2026-05-04 16:31 | 37.43509 | 25.34648 | 407 ft | 0 kts | 250° |